Time;durP1;ratioP1;P1;durP2;ratioP2;P2;SDS_P1;SDS_P2;PMS_P1;PMS_P2;Temp;Humidity;BMP_temperature;BMP_pressure;BME280_temperature;BME280_humidity;BME280_pressure;Samples;Min_cycle;Max_cycle;Signal;HPM_P1;HPM_P2
2022/11/27 00:01:47;;;;;;;22.73;12.60;;;;;;;;;;5103323;28;20024;-77
2022/11/27 00:04:32;;;;;;;23.88;13.35;;;;;;;;;;5117277;28;20023;-75
2022/11/27 00:07:18;;;;;;;22.65;12.73;;;;;;;;;;5101965;28;20026;-74
2022/11/27 00:10:04;;;;;;;22.65;12.43;;;;;;;;;;5117168;28;20092;-76
2022/11/27 00:12:50;;;;;;;25.05;14.23;;;;;;;;;;5117325;28;20106;-75
2022/11/27 00:15:35;;;;;;;23.45;12.38;;;;;;;;;;5102992;28;20088;-75
2022/11/27 00:18:21;;;;;;;23.60;12.95;;;;;;;;;;5116246;28;20106;-74
2022/11/27 00:21:11;;;;;;;23.67;12.95;;;;;;;;;;5103214;28;20023;-72
2022/11/27 00:23:57;;;;;;;26.90;14.05;;;;;;;;;;5117253;28;20028;-72
2022/11/27 00:26:43;;;;;;;23.08;12.50;;;;;;;;;;5102931;28;20027;-73
2022/11/27 00:29:29;;;;;;;21.95;12.90;;;;;;;;;;5094380;28;20041;-73
2022/11/27 00:32:15;;;;;;;25.30;13.43;;;;;;;;;;5116840;28;20023;-73
2022/11/27 00:35:00;;;;;;;22.85;12.80;;;;;;;;;;5115734;28;20023;-73
2022/11/27 00:37:46;;;;;;;23.27;12.88;;;;;;;;;;5115411;28;20083;-73
2022/11/27 00:40:31;;;;;;;25.83;13.77;;;;;;;;;;5101412;28;20012;-73
2022/11/27 00:43:17;;;;;;;29.70;14.27;;;;;;;;;;5102035;28;20011;-72
2022/11/27 00:46:05;;;;;;;28.58;14.15;;;;;;;;;;5115907;28;20440;-73
2022/11/27 00:48:51;;;;;;;35.47;14.68;;;;;;;;;;5116480;28;20031;-73
2022/11/27 00:51:36;;;;;;;28.73;14.27;;;;;;;;;;5115945;28;20173;-73
2022/11/27 00:54:22;;;;;;;23.38;13.10;;;;;;;;;;5116450;28;20024;-73
2022/11/27 00:57:08;;;;;;;25.15;13.45;;;;;;;;;;5115274;28;20201;-73
2022/11/27 00:59:53;;;;;;;25.70;14.18;;;;;;;;;;5116089;28;20012;-73
2022/11/27 01:02:39;;;;;;;26.67;14.48;;;;;;;;;;5101166;28;20089;-73
2022/11/27 01:05:24;;;;;;;26.55;14.20;;;;;;;;;;5115925;28;20016;-73
2022/11/27 01:08:10;;;;;;;27.95;13.93;;;;;;;;;;5115133;28;20019;-74
2022/11/27 01:10:56;;;;;;;29.48;15.20;;;;;;;;;;5114991;28;20137;-73
2022/11/27 01:13:42;;;;;;;25.05;13.60;;;;;;;;;;5116558;28;20015;-74
2022/11/27 01:16:29;;;;;;;26.25;13.73;;;;;;;;;;5115183;28;20115;-73
2022/11/27 01:19:15;;;;;;;24.25;13.35;;;;;;;;;;5115676;28;20448;-73
2022/11/27 01:22:00;;;;;;;22.30;12.68;;;;;;;;;;5115413;28;20015;-72
2022/11/27 01:24:46;;;;;;;25.40;13.20;;;;;;;;;;5115326;28;20103;-72
2022/11/27 01:27:34;;;;;;;21.00;13.13;;;;;;;;;;5115220;28;20015;-73
2022/11/27 01:30:20;;;;;;;24.75;13.25;;;;;;;;;;5100915;28;20023;-73
2022/11/27 01:33:06;;;;;;;22.73;13.45;;;;;;;;;;5117128;28;20042;-73
2022/11/27 01:35:58;;;;;;;21.48;12.52;;;;;;;;;;5115105;28;20020;-74
2022/11/27 01:38:44;;;;;;;24.60;13.52;;;;;;;;;;5115701;28;20051;-73
2022/11/27 01:41:31;;;;;;;24.38;13.32;;;;;;;;;;5100702;28;20027;-74
2022/11/27 01:44:23;;;;;;;26.52;14.30;;;;;;;;;;5115315;28;20070;-74
2022/11/27 01:47:19;;;;;;;26.85;14.82;;;;;;;;;;5100124;28;20016;-73
2022/11/27 01:50:08;;;;;;;25.15;14.25;;;;;;;;;;5115578;28;20028;-73
2022/11/27 01:52:59;;;;;;;32.42;15.18;;;;;;;;;;5115400;28;20034;-73
2022/11/27 01:55:47;;;;;;;32.17;15.60;;;;;;;;;;5115535;28;20023;-72
2022/11/27 01:58:33;;;;;;;33.63;16.20;;;;;;;;;;5115277;28;20110;-72
2022/11/27 02:01:19;;;;;;;35.67;17.90;;;;;;;;;;5115185;28;20030;-73
2022/11/27 02:04:05;;;;;;;34.10;16.85;;;;;;;;;;5115182;28;20157;-71
2022/11/27 02:06:50;;;;;;;30.92;16.48;;;;;;;;;;5114347;28;20027;-73
2022/11/27 02:09:36;;;;;;;29.33;16.15;;;;;;;;;;5114601;28;20030;-73
2022/11/27 02:12:46;;;;;;;31.48;17.63;;;;;;;;;;5100706;28;20022;-72
2022/11/27 02:15:58;;;;;;;30.02;15.82;;;;;;;;;;5101230;28;20015;-72
2022/11/27 02:19:02;;;;;;;34.70;17.10;;;;;;;;;;5091351;28;20035;-73
2022/11/27 02:21:47;;;;;;;30.40;17.27;;;;;;;;;;5100936;28;20066;-73
2022/11/27 02:24:36;;;;;;;33.13;16.95;;;;;;;;;;5114385;28;20080;-73
2022/11/27 02:27:40;;;;;;;31.83;17.20;;;;;;;;;;5114201;28;20028;-71
2022/11/27 02:30:26;;;;;;;29.95;16.13;;;;;;;;;;5114480;28;20041;-73
2022/11/27 02:33:14;;;;;;;31.48;17.15;;;;;;;;;;5114854;28;20096;-72
2022/11/27 02:36:05;;;;;;;30.75;17.23;;;;;;;;;;5100271;28;20035;-73
2022/11/27 02:38:52;;;;;;;31.40;16.75;;;;;;;;;;5101023;28;20456;-73
2022/11/27 02:41:44;;;;;;;34.13;16.30;;;;;;;;;;5114738;28;20374;-74
2022/11/27 02:44:32;;;;;;;29.02;16.08;;;;;;;;;;5100555;28;20054;-73
2022/11/27 02:47:18;;;;;;;30.40;16.85;;;;;;;;;;5114217;28;20084;-72
2022/11/27 02:50:04;;;;;;;30.10;16.08;;;;;;;;;;5113512;28;20470;-72
2022/11/27 02:52:52;;;;;;;30.77;16.65;;;;;;;;;;5114509;28;20023;-72
2022/11/27 02:55:39;;;;;;;34.05;17.63;;;;;;;;;;5114444;28;20016;-72
2022/11/27 02:58:26;;;;;;;30.63;16.77;;;;;;;;;;5114633;28;20023;-73
2022/11/27 03:01:13;;;;;;;29.98;16.52;;;;;;;;;;5114837;28;20024;-72
2022/11/27 03:04:01;;;;;;;29.95;16.75;;;;;;;;;;5114515;28;20023;-73
2022/11/27 03:06:48;;;;;;;31.27;17.38;;;;;;;;;;5114542;28;20028;-73
2022/11/27 03:09:35;;;;;;;29.27;16.90;;;;;;;;;;5114595;28;20491;-72
2022/11/27 03:12:21;;;;;;;31.63;17.20;;;;;;;;;;5100505;28;20443;-72
2022/11/27 03:15:06;;;;;;;25.27;15.05;;;;;;;;;;5100760;28;20047;-73
2022/11/27 03:17:55;;;;;;;29.13;15.65;;;;;;;;;;5115234;28;20355;-73
2022/11/27 03:20:42;;;;;;;28.25;16.05;;;;;;;;;;5100122;28;20015;-73
2022/11/27 03:23:28;;;;;;;28.92;16.10;;;;;;;;;;5100852;28;20023;-73
2022/11/27 03:26:13;;;;;;;26.30;15.32;;;;;;;;;;5117052;28;20039;-72
2022/11/27 03:29:00;;;;;;;31.20;16.90;;;;;;;;;;5117635;28;20019;-72
2022/11/27 03:31:46;;;;;;;30.30;16.27;;;;;;;;;;5117475;28;20038;-73
2022/11/27 03:34:32;;;;;;;28.85;15.40;;;;;;;;;;5104188;28;20019;-73
2022/11/27 03:37:18;;;;;;;27.65;15.65;;;;;;;;;;5103552;28;20459;-72
2022/11/27 03:40:04;;;;;;;27.63;16.05;;;;;;;;;;5116607;28;20034;-73
2022/11/27 03:43:08;;;;;;;29.25;15.98;;;;;;;;;;5118012;28;20070;-73
2022/11/27 03:45:59;;;;;;;28.50;16.73;;;;;;;;;;5102533;28;20054;-72
2022/11/27 03:48:50;;;;;;;27.60;16.10;;;;;;;;;;5117697;28;20062;-72
2022/11/27 03:51:45;;;;;;;31.55;17.77;;;;;;;;;;5117748;28;20107;-72
2022/11/27 03:54:48;;;;;;;30.33;16.95;;;;;;;;;;5117254;28;20064;-73
2022/11/27 03:57:56;;;;;;;31.50;16.33;;;;;;;;;;5117432;28;20015;-72
2022/11/27 04:00:43;;;;;;;33.33;18.52;;;;;;;;;;5117101;28;20020;-73
2022/11/27 04:03:29;;;;;;;32.17;17.80;;;;;;;;;;5116129;28;20026;-73
2022/11/27 04:06:14;;;;;;;32.42;18.63;;;;;;;;;;5117246;28;20077;-72
2022/11/27 04:09:00;;;;;;;31.77;17.80;;;;;;;;;;5116628;28;20022;-72
2022/11/27 04:11:45;;;;;;;31.02;17.25;;;;;;;;;;5116622;28;20024;-73
2022/11/27 04:14:31;;;;;;;34.08;17.85;;;;;;;;;;5115657;28;20027;-72
2022/11/27 04:17:16;;;;;;;36.17;18.67;;;;;;;;;;5116662;28;20076;-73
2022/11/27 04:20:03;;;;;;;31.02;16.50;;;;;;;;;;5116340;28;20008;-73
2022/11/27 04:22:48;;;;;;;31.30;17.70;;;;;;;;;;5116606;28;20051;-73
2022/11/27 04:25:34;;;;;;;30.83;17.40;;;;;;;;;;5116842;28;20021;-73
2022/11/27 04:28:20;;;;;;;35.22;18.95;;;;;;;;;;5115800;28;20459;-72
2022/11/27 04:31:05;;;;;;;33.28;18.17;;;;;;;;;;5116212;28;20136;-72
2022/11/27 04:33:51;;;;;;;33.38;18.65;;;;;;;;;;5115737;28;20024;-72
2022/11/27 04:36:37;;;;;;;30.25;17.63;;;;;;;;;;5094204;28;20497;-71
2022/11/27 04:39:22;;;;;;;31.63;17.83;;;;;;;;;;5116794;28;20069;-73
2022/11/27 04:42:08;;;;;;;30.17;18.00;;;;;;;;;;5101141;28;20042;-72
2022/11/27 04:44:53;;;;;;;32.50;19.25;;;;;;;;;;5115585;28;20030;-73
2022/11/27 04:47:39;;;;;;;33.70;18.15;;;;;;;;;;5114877;28;20336;-72
2022/11/27 04:50:24;;;;;;;32.50;18.73;;;;;;;;;;5102611;28;20424;-73
2022/11/27 04:53:10;;;;;;;32.38;19.55;;;;;;;;;;5115297;28;20030;-73
2022/11/27 04:55:56;;;;;;;34.30;18.70;;;;;;;;;;5102221;28;20015;-72
2022/11/27 04:58:41;;;;;;;33.35;18.58;;;;;;;;;;5116633;28;20015;-73
2022/11/27 05:01:27;;;;;;;32.83;19.05;;;;;;;;;;5102515;28;20496;-72
2022/11/27 05:04:12;;;;;;;32.38;19.17;;;;;;;;;;5115596;28;20026;-72
2022/11/27 05:06:58;;;;;;;31.40;17.95;;;;;;;;;;5115739;28;20027;-72
2022/11/27 05:09:43;;;;;;;36.08;19.30;;;;;;;;;;5116246;28;20061;-74
2022/11/27 05:12:29;;;;;;;34.05;19.17;;;;;;;;;;5101944;28;20031;-73
2022/11/27 05:15:14;;;;;;;33.53;19.55;;;;;;;;;;5114993;28;20491;-72
2022/11/27 05:18:00;;;;;;;37.65;20.13;;;;;;;;;;5115318;28;20035;-72
2022/11/27 05:20:46;;;;;;;37.97;19.10;;;;;;;;;;5115829;28;20080;-73
2022/11/27 05:23:32;;;;;;;35.15;19.33;;;;;;;;;;5116140;28;20104;-72
2022/11/27 05:26:18;;;;;;;34.05;19.15;;;;;;;;;;5103503;28;20440;-73
2022/11/27 05:29:04;;;;;;;32.65;17.70;;;;;;;;;;5122897;28;20020;-72
2022/11/27 05:31:50;;;;;;;33.17;17.88;;;;;;;;;;5121492;28;20031;-73
2022/11/27 05:34:35;;;;;;;31.73;18.33;;;;;;;;;;5122731;28;20048;-72
2022/11/27 05:37:21;;;;;;;30.38;16.30;;;;;;;;;;5133648;28;20036;-73
2022/11/27 05:40:07;;;;;;;27.33;14.73;;;;;;;;;;5134356;28;20103;-72
2022/11/27 05:42:52;;;;;;;27.00;15.35;;;;;;;;;;5134676;28;20027;-73
2022/11/27 05:45:38;;;;;;;29.58;15.40;;;;;;;;;;5133485;28;20034;-73
2022/11/27 05:48:23;;;;;;;28.73;15.68;;;;;;;;;;5133376;28;20030;-73
2022/11/27 05:51:09;;;;;;;25.17;14.63;;;;;;;;;;5135608;28;20027;-73
2022/11/27 05:53:55;;;;;;;23.33;14.07;;;;;;;;;;5132898;28;20409;-74
2022/11/27 05:56:40;;;;;;;24.27;13.32;;;;;;;;;;5135331;28;20061;-74
2022/11/27 05:59:26;;;;;;;22.08;13.02;;;;;;;;;;5129065;28;20054;-71
2022/11/27 06:02:11;;;;;;;23.48;14.05;;;;;;;;;;5124701;28;20072;-74
2022/11/27 06:04:57;;;;;;;24.05;13.48;;;;;;;;;;5122143;28;20034;-72
2022/11/27 06:07:42;;;;;;;22.90;13.45;;;;;;;;;;5131806;28;20073;-74
2022/11/27 06:10:28;;;;;;;23.10;13.60;;;;;;;;;;5124889;28;20026;-73
2022/11/27 06:13:14;;;;;;;24.38;14.40;;;;;;;;;;5103519;28;20020;-73
2022/11/27 06:16:03;;;;;;;21.33;13.57;;;;;;;;;;5128842;28;20012;-72
2022/11/27 06:18:49;;;;;;;24.90;14.23;;;;;;;;;;5117541;28;20028;-74
2022/11/27 06:21:35;;;;;;;21.33;13.52;;;;;;;;;;5103747;28;20047;-74
2022/11/27 06:24:21;;;;;;;22.80;13.52;;;;;;;;;;5121326;28;20356;-73
2022/11/27 06:27:06;;;;;;;28.00;15.65;;;;;;;;;;5117902;28;20024;-73
2022/11/27 06:29:52;;;;;;;32.15;17.20;;;;;;;;;;5124781;28;20020;-72
2022/11/27 06:32:38;;;;;;;29.85;17.70;;;;;;;;;;5120727;28;20031;-73
2022/11/27 06:35:24;;;;;;;26.38;16.38;;;;;;;;;;5123184;28;20340;-73
2022/11/27 06:38:09;;;;;;;27.45;16.40;;;;;;;;;;5129864;28;20047;-73
2022/11/27 06:41:00;;;;;;;24.58;14.98;;;;;;;;;;5119051;28;20481;-74
2022/11/27 06:43:45;;;;;;;28.98;17.02;;;;;;;;;;5118184;28;20418;-73
2022/11/27 06:46:31;;;;;;;28.75;16.17;;;;;;;;;;5120648;28;20023;-73
2022/11/27 06:49:19;;;;;;;29.67;17.13;;;;;;;;;;5101313;28;20030;-72
2022/11/27 06:52:05;;;;;;;32.42;17.45;;;;;;;;;;5114391;28;20145;-74
2022/11/27 06:54:50;;;;;;;32.97;16.92;;;;;;;;;;5114998;28;20094;-74
2022/11/27 06:57:36;;;;;;;26.67;15.60;;;;;;;;;;5115861;28;20417;-73
2022/11/27 07:00:21;;;;;;;28.75;16.63;;;;;;;;;;5117690;28;20030;-74
2022/11/27 07:03:07;;;;;;;26.25;15.20;;;;;;;;;;5118547;28;20027;-73
2022/11/27 07:05:53;;;;;;;29.52;17.30;;;;;;;;;;5120298;28;20028;-73
2022/11/27 07:08:38;;;;;;;32.38;18.10;;;;;;;;;;5120066;28;20026;-73
2022/11/27 07:11:25;;;;;;;32.42;19.38;;;;;;;;;;5118139;28;20023;-74
2022/11/27 07:14:11;;;;;;;28.52;18.02;;;;;;;;;;5118432;28;20043;-73
2022/11/27 07:16:56;;;;;;;30.88;18.15;;;;;;;;;;5117858;28;20016;-74
2022/11/27 07:19:42;;;;;;;32.05;17.85;;;;;;;;;;5118248;28;20020;-73
2022/11/27 07:22:27;;;;;;;31.15;17.55;;;;;;;;;;5118889;28;20051;-72
2022/11/27 07:25:13;;;;;;;32.03;16.85;;;;;;;;;;5104050;28;20023;-73
2022/11/27 07:28:00;;;;;;;29.25;16.83;;;;;;;;;;5116980;28;20030;-73
2022/11/27 07:30:53;;;;;;;27.40;16.30;;;;;;;;;;5118415;28;20047;-73
2022/11/27 07:33:38;;;;;;;28.73;17.67;;;;;;;;;;5118043;28;20390;-73
2022/11/27 07:36:25;;;;;;;29.95;17.88;;;;;;;;;;5116969;28;20051;-74
2022/11/27 07:39:11;;;;;;;29.30;17.23;;;;;;;;;;5118413;28;20443;-72
2022/11/27 07:41:56;;;;;;;29.77;17.58;;;;;;;;;;5117315;28;20485;-74
2022/11/27 07:44:42;;;;;;;30.58;17.90;;;;;;;;;;5103991;28;20028;-73
2022/11/27 07:47:28;;;;;;;31.23;18.92;;;;;;;;;;5117199;28;20020;-73
2022/11/27 07:50:14;;;;;;;30.63;18.40;;;;;;;;;;5117110;28;20099;-73
2022/11/27 07:52:59;;;;;;;30.33;17.63;;;;;;;;;;5116816;28;20027;-73
2022/11/27 07:55:45;;;;;;;27.77;17.45;;;;;;;;;;5103587;28;20015;-73
2022/11/27 07:58:31;;;;;;;35.70;19.15;;;;;;;;;;5117124;28;20015;-74
2022/11/27 08:01:17;;;;;;;28.45;17.02;;;;;;;;;;5117738;28;20023;-73
2022/11/27 08:04:03;;;;;;;29.40;17.30;;;;;;;;;;5117579;28;20088;-73
2022/11/27 08:06:49;;;;;;;33.25;19.70;;;;;;;;;;5102566;28;20016;-73
2022/11/27 08:09:34;;;;;;;29.45;18.05;;;;;;;;;;5096189;28;20454;-73
2022/11/27 08:12:21;;;;;;;28.65;17.85;;;;;;;;;;5116400;28;20023;-74
2022/11/27 08:15:07;;;;;;;28.30;16.63;;;;;;;;;;5116930;28;20043;-72
2022/11/27 08:17:53;;;;;;;27.15;16.13;;;;;;;;;;5102489;28;20043;-73
2022/11/27 08:20:39;;;;;;;29.90;18.02;;;;;;;;;;5102382;28;20012;-72
2022/11/27 08:23:24;;;;;;;26.80;17.10;;;;;;;;;;5116491;28;20467;-74
2022/11/27 08:26:10;;;;;;;28.23;17.13;;;;;;;;;;5102964;28;20028;-74
2022/11/27 08:28:56;;;;;;;29.55;18.55;;;;;;;;;;5117378;28;20027;-73
2022/11/27 08:31:42;;;;;;;30.25;18.48;;;;;;;;;;5116565;28;20027;-72
2022/11/27 08:34:27;;;;;;;29.25;17.60;;;;;;;;;;5115595;28;20094;-73
2022/11/27 08:37:13;;;;;;;35.95;20.88;;;;;;;;;;5087874;28;20051;-72
2022/11/27 08:39:58;;;;;;;29.60;18.85;;;;;;;;;;5115760;28;20447;-72
2022/11/27 08:42:44;;;;;;;39.05;22.23;;;;;;;;;;5102771;28;20076;-74
2022/11/27 08:45:31;;;;;;;37.42;22.85;;;;;;;;;;5116426;28;20142;-73
2022/11/27 08:48:20;;;;;;;46.03;26.77;;;;;;;;;;5102211;28;20024;-73
2022/11/27 08:51:10;;;;;;;58.28;34.05;;;;;;;;;;5115902;28;20024;-72
2022/11/27 08:53:56;;;;;;;64.32;37.83;;;;;;;;;;5116572;28;20034;-73
2022/11/27 08:56:41;;;;;;;59.17;35.97;;;;;;;;;;5100832;28;20012;-74
2022/11/27 08:59:27;;;;;;;60.80;33.95;;;;;;;;;;5114480;28;20027;-73
2022/11/27 09:02:13;;;;;;;55.58;32.08;;;;;;;;;;5115663;28;20032;-73
2022/11/27 09:05:01;;;;;;;56.72;33.15;;;;;;;;;;5102148;28;20030;-74
2022/11/27 09:07:48;;;;;;;58.35;32.95;;;;;;;;;;5100653;28;20102;-74
2022/11/27 09:10:35;;;;;;;48.58;28.17;;;;;;;;;;5101959;28;20027;-74
2022/11/27 09:13:20;;;;;;;50.83;27.95;;;;;;;;;;5116178;28;20420;-74
2022/11/27 09:16:08;;;;;;;54.10;28.13;;;;;;;;;;5116011;28;20106;-73
2022/11/27 09:18:53;;;;;;;45.38;26.38;;;;;;;;;;5102166;28;20027;-73
2022/11/27 09:21:39;;;;;;;44.28;24.83;;;;;;;;;;5115647;28;20092;-74
2022/11/27 09:24:24;;;;;;;44.65;26.38;;;;;;;;;;5115940;28;20020;-74
2022/11/27 09:27:10;;;;;;;37.85;23.52;;;;;;;;;;5116226;28;20016;-72
2022/11/27 09:29:55;;;;;;;37.63;23.75;;;;;;;;;;5115368;28;20096;-75
2022/11/27 09:32:41;;;;;;;39.45;25.00;;;;;;;;;;5114534;28;20324;-73
2022/11/27 09:35:27;;;;;;;54.65;25.13;;;;;;;;;;5115703;28;20034;-73
2022/11/27 09:38:12;;;;;;;41.30;24.33;;;;;;;;;;5100852;28;20112;-75
2022/11/27 09:41:01;;;;;;;39.75;23.13;;;;;;;;;;5114977;28;20116;-73
2022/11/27 09:43:52;;;;;;;40.65;25.75;;;;;;;;;;5101471;28;20102;-74
2022/11/27 09:46:40;;;;;;;44.63;25.75;;;;;;;;;;5115373;28;20351;-72
2022/11/27 09:49:31;;;;;;;43.58;25.02;;;;;;;;;;5115423;28;20359;-74
2022/11/27 09:52:43;;;;;;;44.15;26.33;;;;;;;;;;5101287;28;20102;-73
2022/11/27 09:55:42;;;;;;;41.80;24.95;;;;;;;;;;5091239;28;20486;-74
2022/11/27 09:58:37;;;;;;;45.53;27.00;;;;;;;;;;5100900;28;20015;-76
2022/11/27 10:01:27;;;;;;;43.50;26.98;;;;;;;;;;5116141;27;20458;-73
2022/11/27 10:04:14;;;;;;;42.53;25.73;;;;;;;;;;5100767;28;20023;-74
2022/11/27 10:07:02;;;;;;;48.63;28.52;;;;;;;;;;5115254;28;20035;-74
2022/11/27 10:10:01;;;;;;;48.90;27.92;;;;;;;;;;5100941;28;20020;-74
2022/11/27 10:12:57;;;;;;;43.47;25.08;;;;;;;;;;5115258;28;20028;-74
2022/11/27 10:15:49;;;;;;;44.78;26.02;;;;;;;;;;5100726;28;20031;-74
2022/11/27 10:18:50;;;;;;;40.50;25.88;;;;;;;;;;5101758;28;20352;-74
2022/11/27 10:21:51;;;;;;;43.65;26.33;;;;;;;;;;5101098;28;20410;-73
2022/11/27 10:24:42;;;;;;;47.17;26.48;;;;;;;;;;5101033;28;20356;-74
2022/11/27 10:27:34;;;;;;;44.00;26.17;;;;;;;;;;5114627;28;20161;-76
2022/11/27 10:30:20;;;;;;;42.22;24.38;;;;;;;;;;5114906;28;20027;-74
2022/11/27 10:33:13;;;;;;;41.65;24.80;;;;;;;;;;5114573;28;20447;-75
2022/11/27 10:35:59;;;;;;;42.53;26.48;;;;;;;;;;5118222;28;20026;-75
2022/11/27 10:38:46;;;;;;;42.00;25.48;;;;;;;;;;5117888;28;20069;-74
2022/11/27 10:41:36;;;;;;;38.78;23.95;;;;;;;;;;5118820;28;20034;-74
2022/11/27 10:44:26;;;;;;;39.08;23.13;;;;;;;;;;5118611;28;20027;-75
2022/11/27 10:47:12;;;;;;;41.33;24.63;;;;;;;;;;5104427;28;20024;-74
2022/11/27 10:49:58;;;;;;;37.97;24.48;;;;;;;;;;5119433;28;20026;-75
2022/11/27 10:52:53;;;;;;;39.40;24.95;;;;;;;;;;5103907;28;20103;-75
2022/11/27 10:55:44;;;;;;;37.30;24.20;;;;;;;;;;5118805;28;20027;-74
2022/11/27 10:58:39;;;;;;;41.95;24.13;;;;;;;;;;5104799;28;20015;-74
2022/11/27 11:01:26;;;;;;;42.03;25.17;;;;;;;;;;5104767;28;20015;-74
2022/11/27 11:04:13;;;;;;;40.65;24.30;;;;;;;;;;5105116;28;20019;-75
2022/11/27 11:07:00;;;;;;;37.72;23.63;;;;;;;;;;5103444;28;20046;-74
2022/11/27 11:09:46;;;;;;;42.72;25.58;;;;;;;;;;5118378;28;20020;-74
2022/11/27 11:12:32;;;;;;;39.90;25.15;;;;;;;;;;5117876;28;20088;-74
2022/11/27 11:15:17;;;;;;;41.90;24.92;;;;;;;;;;5119654;27;20027;-74
2022/11/27 11:18:14;;;;;;;39.53;25.05;;;;;;;;;;5117966;28;20012;-74
2022/11/27 11:21:05;;;;;;;37.75;23.73;;;;;;;;;;5118311;28;20019;-74
2022/11/27 11:24:02;;;;;;;37.75;23.67;;;;;;;;;;5117731;28;20107;-75
2022/11/27 11:26:52;;;;;;;37.35;22.65;;;;;;;;;;5118066;28;20023;-74
2022/11/27 11:29:46;;;;;;;37.22;22.70;;;;;;;;;;5118729;28;20015;-74
2022/11/27 11:32:33;;;;;;;43.70;25.02;;;;;;;;;;5117099;28;20356;-74
2022/11/27 11:35:24;;;;;;;40.15;24.38;;;;;;;;;;5117692;28;20440;-74
2022/11/27 11:38:15;;;;;;;38.60;22.75;;;;;;;;;;5117542;28;20129;-74
2022/11/27 11:41:03;;;;;;;42.00;23.90;;;;;;;;;;5117334;28;20023;-75
2022/11/27 11:43:56;;;;;;;39.75;22.38;;;;;;;;;;5117784;28;20080;-75
2022/11/27 11:46:49;;;;;;;36.50;22.52;;;;;;;;;;5102365;28;20454;-74
2022/11/27 11:49:35;;;;;;;35.90;21.65;;;;;;;;;;5117432;28;20020;-73
2022/11/27 11:52:21;;;;;;;35.90;21.77;;;;;;;;;;5118184;28;20394;-74
2022/11/27 11:55:12;;;;;;;37.22;23.15;;;;;;;;;;5117065;28;20059;-75
2022/11/27 11:58:09;;;;;;;36.42;23.38;;;;;;;;;;5103403;28;20496;-74
2022/11/27 12:01:14;;;;;;;43.42;25.00;;;;;;;;;;5118317;27;20046;-74
2022/11/27 12:04:16;;;;;;;45.38;25.77;;;;;;;;;;5080439;28;20068;-73
2022/11/27 12:07:05;;;;;;;38.25;23.75;;;;;;;;;;5117405;28;20020;-74
2022/11/27 12:09:53;;;;;;;40.20;24.75;;;;;;;;;;5116649;28;20020;-73
2022/11/27 12:12:45;;;;;;;39.75;24.95;;;;;;;;;;5116369;28;20484;-74
2022/11/27 12:15:51;;;;;;;33.75;22.80;;;;;;;;;;5116891;28;20073;-74
2022/11/27 12:19:02;;;;;;;39.38;23.52;;;;;;;;;;5115932;28;20015;-74
2022/11/27 12:22:08;;;;;;;36.90;22.45;;;;;;;;;;5103339;28;20069;-74
2022/11/27 12:25:03;;;;;;;36.20;22.40;;;;;;;;;;5113473;28;20035;-74
2022/11/27 12:27:48;;;;;;;34.00;22.02;;;;;;;;;;5116049;28;20030;-74
2022/11/27 12:30:47;;;;;;;34.47;22.05;;;;;;;;;;5116719;28;20081;-74
2022/11/27 12:33:44;;;;;;;38.08;22.60;;;;;;;;;;5117064;28;20099;-73
2022/11/27 12:36:45;;;;;;;40.78;22.90;;;;;;;;;;5118513;28;20527;-74
2022/11/27 12:39:49;;;;;;;40.15;24.65;;;;;;;;;;5102788;28;20077;-74
2022/11/27 12:42:38;;;;;;;38.92;24.00;;;;;;;;;;5116542;28;20502;-75
2022/11/27 12:45:29;;;;;;;33.33;21.73;;;;;;;;;;5116084;28;20442;-74
2022/11/27 12:48:18;;;;;;;35.75;22.80;;;;;;;;;;5115940;28;20110;-74
2022/11/27 12:51:12;;;;;;;36.20;23.17;;;;;;;;;;5115366;28;20012;-74
2022/11/27 12:54:01;;;;;;;37.63;22.77;;;;;;;;;;5116767;28;20022;-74
2022/11/27 12:56:51;;;;;;;42.95;23.77;;;;;;;;;;5114319;28;20023;-75
2022/11/27 12:59:42;;;;;;;36.22;22.65;;;;;;;;;;5115610;28;20018;-75
2022/11/27 13:02:27;;;;;;;38.17;23.23;;;;;;;;;;5115482;28;20031;-74
2022/11/27 13:05:16;;;;;;;37.45;23.00;;;;;;;;;;5115682;28;20085;-74
2022/11/27 13:08:05;;;;;;;37.25;22.70;;;;;;;;;;5114884;28;20436;-73
2022/11/27 13:10:53;;;;;;;37.92;22.92;;;;;;;;;;5116834;28;20335;-74
2022/11/27 13:13:39;;;;;;;40.10;24.05;;;;;;;;;;5115157;28;20023;-74
2022/11/27 13:16:37;;;;;;;48.38;25.05;;;;;;;;;;5101664;28;20035;-76
2022/11/27 13:19:34;;;;;;;41.15;24.10;;;;;;;;;;5116024;28;20104;-75
2022/11/27 13:22:27;;;;;;;40.53;24.17;;;;;;;;;;5116030;28;20024;-74
2022/11/27 13:25:16;;;;;;;40.45;22.80;;;;;;;;;;5116053;28;20023;-74
2022/11/27 13:28:02;;;;;;;36.53;23.05;;;;;;;;;;5115452;28;20081;-74
2022/11/27 13:30:50;;;;;;;37.70;22.50;;;;;;;;;;5100530;28;20439;-74
2022/11/27 13:33:41;;;;;;;37.22;22.98;;;;;;;;;;5115355;28;20027;-75
2022/11/27 13:36:29;;;;;;;36.17;22.60;;;;;;;;;;5115006;28;20035;-73
2022/11/27 13:39:22;;;;;;;43.72;24.17;;;;;;;;;;5115586;28;20015;-74
2022/11/27 13:42:11;;;;;;;39.72;23.35;;;;;;;;;;5115007;28;20023;-72
2022/11/27 13:44:56;;;;;;;37.25;22.88;;;;;;;;;;5114898;28;20099;-75
2022/11/27 13:47:42;;;;;;;38.35;24.13;;;;;;;;;;5101244;28;20432;-77
2022/11/27 13:50:29;;;;;;;37.20;22.63;;;;;;;;;;5100834;28;20444;-76
2022/11/27 13:53:14;;;;;;;38.72;23.88;;;;;;;;;;5115636;28;20181;-75
2022/11/27 13:56:00;;;;;;;40.88;24.73;;;;;;;;;;5100987;28;20020;-76
2022/11/27 13:58:46;;;;;;;38.78;23.83;;;;;;;;;;5100749;28;20015;-76
2022/11/27 14:01:31;;;;;;;48.85;25.88;;;;;;;;;;5100928;28;20385;-77
2022/11/27 14:04:17;;;;;;;40.53;25.45;;;;;;;;;;5114147;28;20027;-77
2022/11/27 14:07:08;;;;;;;42.75;23.63;;;;;;;;;;5114959;28;20055;-76
2022/11/27 14:09:55;;;;;;;38.83;24.38;;;;;;;;;;5100779;28;20356;-76
2022/11/27 14:12:41;;;;;;;41.88;25.92;;;;;;;;;;5114060;28;20019;-75
2022/11/27 14:15:28;;;;;;;43.67;24.67;;;;;;;;;;5114927;28;20015;-76
2022/11/27 14:18:18;;;;;;;45.78;26.05;;;;;;;;;;5114743;28;20133;-77
2022/11/27 14:21:03;;;;;;;42.97;25.42;;;;;;;;;;5114909;28;20077;-76
2022/11/27 14:23:50;;;;;;;43.38;25.88;;;;;;;;;;5113601;28;20016;-76
2022/11/27 14:26:40;;;;;;;46.00;26.95;;;;;;;;;;5114561;28;20016;-76
2022/11/27 14:29:29;;;;;;;46.40;26.38;;;;;;;;;;5099407;28;20446;-77
2022/11/27 14:32:15;;;;;;;45.15;25.42;;;;;;;;;;5114481;28;20118;-76
2022/11/27 14:35:01;;;;;;;43.58;26.70;;;;;;;;;;5114826;28;20058;-77
2022/11/27 14:37:46;;;;;;;48.28;27.27;;;;;;;;;;5113021;28;20055;-76
2022/11/27 14:40:35;;;;;;;43.42;27.00;;;;;;;;;;5114807;28;20427;-76
2022/11/27 14:43:22;;;;;;;46.38;28.15;;;;;;;;;;5099184;28;20467;-75
2022/11/27 14:46:19;;;;;;;45.65;28.00;;;;;;;;;;5113569;28;20028;-75
2022/11/27 14:49:04;;;;;;;49.38;28.88;;;;;;;;;;5115728;28;20363;-77
2022/11/27 14:51:50;;;;;;;49.42;28.35;;;;;;;;;;5113340;28;20038;-76
2022/11/27 14:54:39;;;;;;;47.47;28.50;;;;;;;;;;5114411;28;20020;-76
2022/11/27 14:57:26;;;;;;;46.90;28.42;;;;;;;;;;5114180;28;20016;-75
2022/11/27 15:00:15;;;;;;;53.45;29.75;;;;;;;;;;5100486;28;20027;-76
2022/11/27 15:03:07;;;;;;;52.95;30.48;;;;;;;;;;5114305;28;20111;-75
2022/11/27 15:06:04;;;;;;;51.63;30.38;;;;;;;;;;5100456;28;20084;-77
2022/11/27 15:08:50;;;;;;;59.03;32.95;;;;;;;;;;5112963;28;20132;-75
2022/11/27 15:11:36;;;;;;;56.00;32.72;;;;;;;;;;5100113;28;20019;-75
2022/11/27 15:14:22;;;;;;;54.47;32.30;;;;;;;;;;5115077;28;20048;-76
2022/11/27 15:17:13;;;;;;;53.58;30.40;;;;;;;;;;5099661;28;20030;-75
2022/11/27 15:20:00;;;;;;;54.08;31.95;;;;;;;;;;5100764;28;20103;-73
2022/11/27 15:22:53;;;;;;;61.13;35.60;;;;;;;;;;5103690;28;20020;-75
2022/11/27 15:25:40;;;;;;;58.15;34.42;;;;;;;;;;5118133;28;20100;-75
2022/11/27 15:28:27;;;;;;;60.70;33.25;;;;;;;;;;5103951;28;20047;-76
2022/11/27 15:31:23;;;;;;;55.53;31.58;;;;;;;;;;5123283;28;20057;-76
2022/11/27 15:34:15;;;;;;;56.50;31.20;;;;;;;;;;5108584;28;20106;-76
2022/11/27 15:37:05;;;;;;;51.75;29.98;;;;;;;;;;5116311;28;20471;-76
2022/11/27 15:39:51;;;;;;;52.60;30.88;;;;;;;;;;5103222;28;20106;-74
2022/11/27 15:42:37;;;;;;;51.78;29.60;;;;;;;;;;5117722;28;20393;-75
2022/11/27 15:45:25;;;;;;;52.05;30.17;;;;;;;;;;5103552;28;20053;-76
2022/11/27 15:48:15;;;;;;;50.95;29.05;;;;;;;;;;5103369;28;20131;-75
2022/11/27 15:51:01;;;;;;;56.05;31.77;;;;;;;;;;5103916;28;20028;-76
2022/11/27 15:53:47;;;;;;;52.33;31.25;;;;;;;;;;5116551;28;20035;-75
2022/11/27 15:56:33;;;;;;;52.70;31.17;;;;;;;;;;5102976;28;20038;-75
2022/11/27 15:59:19;;;;;;;49.90;30.67;;;;;;;;;;5094097;28;20077;-77
2022/11/27 16:02:05;;;;;;;50.30;30.50;;;;;;;;;;5117678;28;20432;-75
2022/11/27 16:04:51;;;;;;;53.45;30.85;;;;;;;;;;5103571;28;20028;-76
2022/11/27 16:07:36;;;;;;;49.63;29.55;;;;;;;;;;5102583;28;20026;-75
2022/11/27 16:10:22;;;;;;;57.92;32.15;;;;;;;;;;5102515;28;20024;-75
2022/11/27 16:13:08;;;;;;;51.42;30.33;;;;;;;;;;5103222;28;20034;-77
2022/11/27 16:15:53;;;;;;;54.72;31.50;;;;;;;;;;5102818;28;20020;-76
2022/11/27 16:18:39;;;;;;;60.75;34.85;;;;;;;;;;5116780;28;20489;-76